Time;durP1;ratioP1;P1;durP2;ratioP2;P2;SDS_P1;SDS_P2;PMS_P1;PMS_P2;Temp;Humidity;BMP_temperature;BMP_pressure;BME280_temperature;BME280_humidity;BME280_pressure;Samples;Min_cycle;Max_cycle;Signal;HPM_P1;HPM_P2
2021/08/25 00:01:01;;;;;;;7.75;5.82;;;;;;;;;;5003695;28;20114;-94
2021/08/25 00:03:27;;;;;;;6.43;5.72;;;;;;;;;;5021189;28;20026;-95
2021/08/25 00:05:54;;;;;;;6.60;5.68;;;;;;;;;;5007835;28;20030;-95
2021/08/25 00:08:20;;;;;;;6.47;5.45;;;;;;;;;;5003720;28;20026;-94
2021/08/25 00:10:46;;;;;;;7.03;5.63;;;;;;;;;;5021133;28;20057;-95
2021/08/25 00:13:12;;;;;;;7.57;5.55;;;;;;;;;;5020926;28;20109;-94
2021/08/25 00:15:39;;;;;;;10.73;6.28;;;;;;;;;;5020839;28;20030;-94
2021/08/25 00:18:07;;;;;;;6.22;5.60;;;;;;;;;;5020518;28;20026;-95
2021/08/25 00:20:33;;;;;;;6.97;5.68;;;;;;;;;;5020783;28;20046;-94
2021/08/25 00:22:59;;;;;;;6.47;5.13;;;;;;;;;;5003347;28;20050;-96
2021/08/25 00:25:27;;;;;;;5.55;4.97;;;;;;;;;;5020534;28;20026;-96
2021/08/25 00:27:53;;;;;;;5.25;4.75;;;;;;;;;;5020604;28;20025;-96
2021/08/25 00:30:20;;;;;;;7.47;4.97;;;;;;;;;;5020457;28;20073;-95
2021/08/25 00:32:46;;;;;;;5.10;4.53;;;;;;;;;;5003188;28;20030;-95
2021/08/25 00:35:12;;;;;;;5.53;4.28;;;;;;;;;;5002822;28;20508;-95
2021/08/25 00:37:38;;;;;;;8.85;4.47;;;;;;;;;;5003045;28;20117;-95
2021/08/25 00:40:05;;;;;;;4.20;3.80;;;;;;;;;;5003498;28;20450;-96
2021/08/25 00:42:31;;;;;;;4.43;3.33;;;;;;;;;;5020342;28;20030;-94
2021/08/25 00:45:01;;;;;;;4.13;3.15;;;;;;;;;;5020208;28;20045;-95
2021/08/25 00:47:27;;;;;;;7.60;2.50;;;;;;;;;;5020136;28;20018;-96
2021/08/25 00:49:53;;;;;;;2.75;2.15;;;;;;;;;;5020375;28;20022;-94
2021/08/25 00:52:19;;;;;;;2.60;2.40;;;;;;;;;;5020356;28;20113;-94
2021/08/25 00:54:45;;;;;;;1.50;1.40;;;;;;;;;;5002730;28;20028;-95
2021/08/25 00:57:19;;;;;;;1.83;1.42;;;;;;;;;;5020439;28;20033;-94
2021/08/25 00:59:45;;;;;;;2.88;1.25;;;;;;;;;;5002070;28;20030;-95
2021/08/25 01:02:27;;;;;;;1.70;1.20;;;;;;;;;;5002783;28;20124;-94
2021/08/25 01:04:54;;;;;;;1.58;1.10;;;;;;;;;;5002050;28;20041;-95
2021/08/25 01:07:24;;;;;;;3.78;1.23;;;;;;;;;;5002486;28;20072;-94
2021/08/25 01:09:54;;;;;;;3.08;1.20;;;;;;;;;;5002618;28;20033;-95
2021/08/25 01:12:21;;;;;;;1.45;1.35;;;;;;;;;;5019658;28;20026;-95
2021/08/25 01:14:47;;;;;;;3.08;1.30;;;;;;;;;;5002475;28;20034;-96
2021/08/25 01:17:13;;;;;;;3.42;1.05;;;;;;;;;;5019488;28;20313;-96
2021/08/25 01:19:46;;;;;;;1.58;1.25;;;;;;;;;;5019823;28;20037;-94
2021/08/25 01:22:13;;;;;;;2.25;1.08;;;;;;;;;;5017834;28;20108;-96
2021/08/25 01:24:39;;;;;;;1.70;1.00;;;;;;;;;;5019545;28;20474;-95
2021/08/25 01:27:06;;;;;;;1.48;1.00;;;;;;;;;;5019297;28;20026;-95
2021/08/25 01:29:32;;;;;;;2.05;1.00;;;;;;;;;;5019367;28;20026;-95
2021/08/25 01:31:58;;;;;;;1.20;1.10;;;;;;;;;;5019452;28;20026;-96
2021/08/25 01:34:24;;;;;;;2.28;1.05;;;;;;;;;;5019498;28;20105;-96
2021/08/25 01:36:51;;;;;;;1.05;0.95;;;;;;;;;;5019275;28;20068;-95
2021/08/25 01:39:17;;;;;;;2.10;0.90;;;;;;;;;;5001485;28;20088;-96
2021/08/25 01:41:43;;;;;;;1.65;0.95;;;;;;;;;;5002115;28;20022;-96
2021/08/25 01:44:10;;;;;;;1.92;0.80;;;;;;;;;;5019122;28;20032;-96
2021/08/25 01:46:37;;;;;;;3.33;0.80;;;;;;;;;;5019141;28;20026;-96
2021/08/25 01:49:07;;;;;;;3.85;0.90;;;;;;;;;;5004368;28;20030;-96
2021/08/25 01:52:08;;;;;;;2.47;0.90;;;;;;;;;;5034583;28;20038;-96
2021/08/25 01:54:45;;;;;;;3.30;0.77;;;;;;;;;;5687710;23;20043;-96
2021/08/25 02:16:55;;;;;;;3.10;0.82;;;;;;;;;;5672572;23;20056;-94
2021/08/25 02:19:21;;;;;;;2.45;0.70;;;;;;;;;;4999055;28;20483;-94
2021/08/25 02:21:47;;;;;;;2.67;0.60;;;;;;;;;;4998787;28;20026;-94
2021/08/25 02:24:13;;;;;;;2.60;0.60;;;;;;;;;;4997990;28;20082;-94
2021/08/25 02:26:39;;;;;;;0.90;0.63;;;;;;;;;;4999683;28;20027;-96
2021/08/25 02:29:05;;;;;;;0.70;0.60;;;;;;;;;;5000418;28;20026;-96
2021/08/25 02:31:31;;;;;;;1.65;0.50;;;;;;;;;;4998281;28;20413;-96
2021/08/25 02:33:57;;;;;;;3.05;0.80;;;;;;;;;;4998122;28;20026;-96
2021/08/25 02:36:23;;;;;;;0.90;0.60;;;;;;;;;;4998848;28;20022;-96
2021/08/25 02:38:50;;;;;;;1.05;0.80;;;;;;;;;;4999828;28;20049;-96
2021/08/25 02:41:18;;;;;;;2.47;0.60;;;;;;;;;;5001943;28;20026;-96
2021/08/25 02:43:44;;;;;;;1.92;0.70;;;;;;;;;;5002017;28;20026;-96
2021/08/25 02:46:10;;;;;;;1.67;0.77;;;;;;;;;;5001316;28;20022;-96
2021/08/25 02:48:37;;;;;;;0.60;0.50;;;;;;;;;;5000637;28;20033;-95
2021/08/25 02:51:03;;;;;;;0.95;0.63;;;;;;;;;;4998260;28;20026;-95
2021/08/25 02:53:29;;;;;;;3.22;0.60;;;;;;;;;;4998678;28;20022;-95
2021/08/25 02:55:55;;;;;;;1.50;0.50;;;;;;;;;;4998181;28;20409;-95
2021/08/25 02:58:21;;;;;;;0.85;0.60;;;;;;;;;;4998397;28;20030;-96
2021/08/25 03:00:47;;;;;;;0.98;0.60;;;;;;;;;;4998326;28;20030;-94
2021/08/25 03:03:13;;;;;;;0.70;0.50;;;;;;;;;;4998211;28;20034;-95
2021/08/25 03:05:39;;;;;;;0.90;0.70;;;;;;;;;;4998219;28;20026;-94
2021/08/25 03:08:05;;;;;;;0.70;0.50;;;;;;;;;;4998229;28;20022;-94
2021/08/25 03:10:31;;;;;;;0.60;0.47;;;;;;;;;;4997424;28;20038;-94
2021/08/25 03:12:58;;;;;;;4.18;0.80;;;;;;;;;;4998311;28;20026;-95
2021/08/25 03:15:24;;;;;;;0.82;0.70;;;;;;;;;;4998108;28;20492;-94
2021/08/25 03:17:50;;;;;;;0.60;0.50;;;;;;;;;;4998212;28;20449;-95
2021/08/25 03:20:16;;;;;;;2.65;0.60;;;;;;;;;;4997394;28;20038;-94
2021/08/25 03:22:42;;;;;;;1.58;0.68;;;;;;;;;;5001015;28;20050;-94
2021/08/25 03:25:09;;;;;;;0.60;0.50;;;;;;;;;;5002027;28;20118;-93
2021/08/25 03:27:35;;;;;;;4.85;0.80;;;;;;;;;;5002270;28;20027;-95
2021/08/25 03:30:02;;;;;;;1.08;0.70;;;;;;;;;;5002275;28;20030;-94
2021/08/25 03:32:28;;;;;;;0.80;0.70;;;;;;;;;;5001108;28;20412;-94
2021/08/25 03:37:31;;;;;;;0.80;0.60;;;;;;;;;;5961552;23;20100;-96
2021/08/25 03:39:57;;;;;;;1.27;0.65;;;;;;;;;;5013980;28;20471;-95
2021/08/25 03:42:24;;;;;;;2.42;0.70;;;;;;;;;;5013386;28;20038;-96
2021/08/25 03:44:51;;;;;;;2.08;0.70;;;;;;;;;;5012154;28;20100;-96
2021/08/25 03:47:17;;;;;;;0.95;0.75;;;;;;;;;;5011887;28;20058;-96
2021/08/25 03:49:44;;;;;;;1.02;0.75;;;;;;;;;;5009613;28;20022;-95
2021/08/25 03:52:10;;;;;;;1.67;0.65;;;;;;;;;;5008681;28;20018;-94
2021/08/25 03:54:37;;;;;;;1.63;1.00;;;;;;;;;;5010359;28;20029;-96
2021/08/25 03:57:03;;;;;;;4.35;0.90;;;;;;;;;;5004264;28;20026;-96
2021/08/25 03:59:29;;;;;;;1.67;0.63;;;;;;;;;;5003377;28;20488;-93
2021/08/25 04:01:55;;;;;;;3.25;0.82;;;;;;;;;;5002117;28;20031;-92
2021/08/25 04:04:21;;;;;;;2.60;0.80;;;;;;;;;;5001399;28;20049;-93
2021/08/25 04:06:47;;;;;;;2.03;0.82;;;;;;;;;;5000369;28;20058;-93
2021/08/25 04:09:13;;;;;;;2.45;0.90;;;;;;;;;;5001918;28;20022;-94
2021/08/25 04:11:39;;;;;;;1.42;0.90;;;;;;;;;;5000216;28;20049;-93
2021/08/25 04:14:05;;;;;;;3.80;0.93;;;;;;;;;;4999964;28;20025;-92
2021/08/25 04:16:32;;;;;;;1.77;0.80;;;;;;;;;;5000878;28;20065;-93
2021/08/25 04:18:58;;;;;;;1.05;0.90;;;;;;;;;;5001557;28;20034;-93
2021/08/25 04:21:24;;;;;;;3.58;1.08;;;;;;;;;;5001127;28;20063;-95
2021/08/25 04:23:50;;;;;;;0.70;0.70;;;;;;;;;;5001366;28;20027;-95
2021/08/25 04:26:16;;;;;;;1.05;0.90;;;;;;;;;;4999926;28;20027;-95
2021/08/25 04:28:42;;;;;;;1.92;0.93;;;;;;;;;;5001075;28;20023;-95
2021/08/25 04:31:09;;;;;;;1.83;1.00;;;;;;;;;;5001222;28;20026;-93
2021/08/25 04:33:35;;;;;;;3.25;1.98;;;;;;;;;;4999256;28;20027;-94
2021/08/25 04:36:02;;;;;;;3.08;0.98;;;;;;;;;;5001062;28;20046;-93
2021/08/25 04:38:28;;;;;;;2.55;0.98;;;;;;;;;;5001058;28;20341;-92
2021/08/25 04:40:57;;;;;;;3.70;1.90;;;;;;;;;;5001514;28;20321;-93
2021/08/25 04:43:23;;;;;;;2.88;1.35;;;;;;;;;;5000693;28;20033;-90
2021/08/25 04:45:49;;;;;;;2.15;1.10;;;;;;;;;;5001368;28;20379;-95
2021/08/25 04:48:15;;;;;;;1.42;0.70;;;;;;;;;;5001934;28;20022;-93
2021/08/25 04:50:42;;;;;;;4.38;1.38;;;;;;;;;;5000853;28;20149;-91
2021/08/25 04:53:08;;;;;;;2.05;0.90;;;;;;;;;;5000574;28;20026;-90
2021/08/25 05:03:36;;;;;;;4.35;0.80;;;;;;;;;;5027632;23;20054;-88
2021/08/25 05:06:09;;;;;;;1.08;0.80;;;;;;;;;;5000309;28;20058;-90
2021/08/25 05:08:35;;;;;;;1.45;0.80;;;;;;;;;;4999294;28;20022;-89
2021/08/25 05:11:01;;;;;;;2.95;0.73;;;;;;;;;;5000522;28;20045;-89
2021/08/25 05:13:28;;;;;;;3.78;1.95;;;;;;;;;;5000336;28;20018;-90
2021/08/25 05:15:54;;;;;;;3.65;1.00;;;;;;;;;;4999353;28;20029;-91
2021/08/25 05:18:20;;;;;;;1.38;1.00;;;;;;;;;;4999040;28;20117;-90
2021/08/25 05:20:46;;;;;;;0.80;0.80;;;;;;;;;;5000217;28;20041;-90
2021/08/25 05:23:12;;;;;;;1.38;0.80;;;;;;;;;;5000016;28;20026;-91
2021/08/25 05:25:38;;;;;;;2.53;0.70;;;;;;;;;;4999910;28;20026;-89
2021/08/25 05:28:04;;;;;;;0.93;0.70;;;;;;;;;;4999857;28;20525;-90
2021/08/25 05:30:31;;;;;;;4.60;0.98;;;;;;;;;;5000055;28;20029;-90
2021/08/25 05:32:57;;;;;;;1.60;0.85;;;;;;;;;;5000225;28;20037;-92
2021/08/25 05:35:24;;;;;;;2.53;0.80;;;;;;;;;;4999975;28;20350;-92
2021/08/25 05:37:50;;;;;;;2.38;0.70;;;;;;;;;;4998928;28;20061;-91
2021/08/25 05:40:17;;;;;;;0.85;0.80;;;;;;;;;;4998741;28;20088;-91
2021/08/25 05:42:45;;;;;;;1.10;0.70;;;;;;;;;;4999571;28;20316;-91
2021/08/25 05:45:11;;;;;;;1.00;0.90;;;;;;;;;;4998542;28;20076;-92
2021/08/25 05:47:38;;;;;;;1.38;0.90;;;;;;;;;;4998646;28;20042;-92
2021/08/25 05:50:04;;;;;;;2.35;1.05;;;;;;;;;;4999565;28;20018;-90
2021/08/25 05:52:30;;;;;;;0.85;0.68;;;;;;;;;;4998425;28;20030;-92
2021/08/25 05:54:57;;;;;;;1.13;1.02;;;;;;;;;;4998649;28;20019;-92
2021/08/25 05:57:23;;;;;;;1.65;0.90;;;;;;;;;;4999613;28;20097;-92
2021/08/25 05:59:49;;;;;;;1.40;0.80;;;;;;;;;;4998322;28;20039;-92
2021/08/25 06:02:15;;;;;;;1.63;1.10;;;;;;;;;;4998091;28;20058;-92
2021/08/25 06:04:41;;;;;;;1.50;0.95;;;;;;;;;;4999148;28;20149;-91
2021/08/25 06:07:10;;;;;;;1.90;0.90;;;;;;;;;;4998514;28;20027;-92
2021/08/25 06:09:36;;;;;;;2.78;1.10;;;;;;;;;;4999168;28;20030;-91
2021/08/25 06:12:03;;;;;;;5.15;1.60;;;;;;;;;;4998010;28;20023;-91
2021/08/25 06:14:29;;;;;;;4.40;1.40;;;;;;;;;;4998963;28;20022;-91
2021/08/25 06:16:55;;;;;;;2.03;1.10;;;;;;;;;;4999001;28;20073;-93
2021/08/25 06:19:21;;;;;;;2.30;1.17;;;;;;;;;;4998883;28;20117;-92
2021/08/25 06:21:48;;;;;;;4.45;1.20;;;;;;;;;;4998841;28;20294;-92
2021/08/25 06:24:14;;;;;;;2.20;1.05;;;;;;;;;;4999008;28;20026;-92
2021/08/25 06:26:40;;;;;;;2.63;1.13;;;;;;;;;;4997854;28;20027;-92
2021/08/25 06:29:07;;;;;;;2.45;1.48;;;;;;;;;;4999026;28;20290;-91
2021/08/25 06:31:33;;;;;;;1.92;1.10;;;;;;;;;;4998706;28;20030;-91
2021/08/25 06:33:59;;;;;;;4.13;1.10;;;;;;;;;;4997685;28;20019;-92
2021/08/25 06:36:26;;;;;;;3.60;1.52;;;;;;;;;;4998871;28;20105;-92
2021/08/25 06:38:52;;;;;;;2.88;1.30;;;;;;;;;;4997686;28;20026;-92
2021/08/25 06:41:19;;;;;;;1.17;1.05;;;;;;;;;;4997699;28;20026;-92
2021/08/25 06:43:45;;;;;;;1.05;0.93;;;;;;;;;;4997733;28;20443;-91
2021/08/25 06:46:11;;;;;;;1.67;1.20;;;;;;;;;;4998632;28;20031;-93
2021/08/25 06:48:37;;;;;;;2.65;1.20;;;;;;;;;;4998521;28;20022;-92
2021/08/25 06:51:04;;;;;;;2.05;1.10;;;;;;;;;;4997339;28;20113;-89
2021/08/25 06:53:31;;;;;;;1.35;1.10;;;;;;;;;;4998578;28;20046;-95
2021/08/25 06:55:57;;;;;;;1.60;1.15;;;;;;;;;;4997503;28;20026;-95
2021/08/25 06:58:26;;;;;;;3.22;1.30;;;;;;;;;;4998552;28;20032;-94
2021/08/25 07:00:53;;;;;;;1.10;1.00;;;;;;;;;;4998439;28;20038;-94
2021/08/25 07:03:19;;;;;;;1.60;0.90;;;;;;;;;;4997194;28;20054;-94
2021/08/25 07:05:45;;;;;;;2.42;1.10;;;;;;;;;;4998213;28;20425;-93
2021/08/25 07:08:11;;;;;;;2.65;1.08;;;;;;;;;;4998277;28;20059;-94
2021/08/25 07:10:37;;;;;;;2.08;1.10;;;;;;;;;;4998427;28;20019;-93
2021/08/25 07:13:03;;;;;;;1.48;1.00;;;;;;;;;;4996915;28;20033;-93
2021/08/25 07:15:29;;;;;;;2.42;1.05;;;;;;;;;;4998162;28;20027;-93
2021/08/25 07:17:57;;;;;;;1.88;0.98;;;;;;;;;;4997353;28;20348;-94
2021/08/25 07:20:23;;;;;;;6.05;1.20;;;;;;;;;;4997368;28;20380;-93
2021/08/25 07:22:49;;;;;;;3.35;1.30;;;;;;;;;;4997079;28;20037;-94
2021/08/25 07:25:15;;;;;;;1.40;1.20;;;;;;;;;;4998262;28;20026;-94
2021/08/25 07:27:41;;;;;;;2.20;1.17;;;;;;;;;;4998125;28;20026;-92
2021/08/25 07:30:08;;;;;;;4.43;1.50;;;;;;;;;;4998343;28;20106;-93
2021/08/25 07:32:35;;;;;;;1.92;1.27;;;;;;;;;;4998324;28;20034;-93
2021/08/25 07:35:01;;;;;;;6.55;1.50;;;;;;;;;;4998263;28;20045;-93
2021/08/25 07:37:27;;;;;;;2.58;1.58;;;;;;;;;;4997371;28;20033;-92
2021/08/25 07:39:53;;;;;;;2.50;1.77;;;;;;;;;;4997244;28;20029;-92
2021/08/25 07:42:19;;;;;;;1.98;1.50;;;;;;;;;;4997078;28;20101;-93
2021/08/25 07:44:46;;;;;;;2.92;1.77;;;;;;;;;;4997019;28;20081;-93
2021/08/25 07:47:12;;;;;;;2.25;1.30;;;;;;;;;;4997969;28;20034;-92
2021/08/25 07:49:38;;;;;;;2.38;1.65;;;;;;;;;;4997806;28;20504;-91
2021/08/25 07:52:05;;;;;;;3.97;1.65;;;;;;;;;;4997052;28;20034;-90
2021/08/25 07:54:32;;;;;;;1.65;1.52;;;;;;;;;;4996542;28;20065;-75
2021/08/25 07:56:58;;;;;;;4.00;1.67;;;;;;;;;;4997196;28;20118;-75
2021/08/25 07:59:24;;;;;;;4.32;1.63;;;;;;;;;;4997202;28;20041;-75
2021/08/25 08:01:50;;;;;;;2.55;1.60;;;;;;;;;;4997083;28;20046;-75
2021/08/25 08:04:16;;;;;;;4.65;1.80;;;;;;;;;;4997010;28;20081;-75
2021/08/25 08:06:42;;;;;;;4.13;1.27;;;;;;;;;;4997224;28;20062;-75
2021/08/25 08:09:08;;;;;;;2.80;1.70;;;;;;;;;;4998852;28;20025;-75
2021/08/25 08:11:34;;;;;;;3.47;2.05;;;;;;;;;;5000705;28;20409;-75
2021/08/25 08:14:00;;;;;;;4.22;1.88;;;;;;;;;;5000657;28;20026;-75
2021/08/25 08:16:26;;;;;;;2.38;1.67;;;;;;;;;;5000700;28;20026;-75
2021/08/25 08:19:02;;;;;;;2.53;1.70;;;;;;;;;;5000391;28;20294;-75
2021/08/25 08:21:28;;;;;;;2.63;1.90;;;;;;;;;;5000577;28;20026;-75
2021/08/25 08:23:55;;;;;;;3.30;2.10;;;;;;;;;;5000299;28;20030;-75
2021/08/25 08:26:21;;;;;;;4.65;2.13;;;;;;;;;;5000263;28;20468;-75
2021/08/25 08:28:48;;;;;;;4.90;2.10;;;;;;;;;;5000473;28;20030;-75
2021/08/25 08:31:14;;;;;;;3.53;2.20;;;;;;;;;;5000331;28;20023;-75
2021/08/25 08:33:40;;;;;;;2.63;2.25;;;;;;;;;;5000361;28;20496;-75
2021/08/25 08:36:06;;;;;;;3.17;2.30;;;;;;;;;;5000161;28;20109;-75
2021/08/25 08:38:33;;;;;;;2.88;2.20;;;;;;;;;;5000461;28;20109;-75
2021/08/25 08:40:59;;;;;;;3.20;2.03;;;;;;;;;;5000157;28;20468;-75
2021/08/25 08:43:25;;;;;;;2.22;2.00;;;;;;;;;;5000144;28;20034;-75
2021/08/25 08:45:51;;;;;;;2.55;2.17;;;;;;;;;;5000045;28;20337;-75
2021/08/25 08:48:17;;;;;;;4.57;2.53;;;;;;;;;;5000000;28;20072;-75
2021/08/25 08:50:46;;;;;;;3.58;2.50;;;;;;;;;;5000068;28;20425;-74
2021/08/25 08:53:14;;;;;;;3.35;2.70;;;;;;;;;;4999163;28;20317;-80
2021/08/25 08:55:40;;;;;;;3.05;2.50;;;;;;;;;;4999836;28;20035;-75
2021/08/25 08:58:06;;;;;;;4.43;2.70;;;;;;;;;;4999932;28;20336;-75
2021/08/25 09:00:33;;;;;;;6.47;2.67;;;;;;;;;;4999921;28;20150;-75
2021/08/25 09:03:00;;;;;;;7.32;3.00;;;;;;;;;;4998473;28;20053;-75
2021/08/25 09:05:27;;;;;;;4.25;2.80;;;;;;;;;;4999883;28;20029;-75
2021/08/25 09:07:54;;;;;;;4.65;3.35;;;;;;;;;;4999842;28;20320;-75
2021/08/25 09:10:22;;;;;;;3.83;2.70;;;;;;;;;;4999654;28;20022;-76
2021/08/25 09:12:52;;;;;;;4.53;3.10;;;;;;;;;;4999668;28;20435;-76
2021/08/25 09:15:26;;;;;;;5.57;2.60;;;;;;;;;;4999666;28;20033;-76
2021/08/25 09:17:56;;;;;;;5.20;3.30;;;;;;;;;;4999461;28;20023;-75
2021/08/25 09:20:22;;;;;;;6.75;3.33;;;;;;;;;;4999272;28;20049;-75
2021/08/25 09:23:05;;;;;;;6.50;3.20;;;;;;;;;;4999508;28;20097;-75
2021/08/25 09:25:32;;;;;;;5.68;3.50;;;;;;;;;;4999423;28;20153;-75
2021/08/25 09:27:58;;;;;;;4.80;3.30;;;;;;;;;;4998299;28;20030;-75
2021/08/25 09:30:24;;;;;;;7.57;3.47;;;;;;;;;;4999204;28;20027;-75
2021/08/25 09:32:50;;;;;;;6.05;3.75;;;;;;;;;;4999144;28;20031;-76
2021/08/25 09:35:16;;;;;;;4.75;4.20;;;;;;;;;;4999358;28;20121;-75
2021/08/25 09:37:51;;;;;;;5.28;3.75;;;;;;;;;;4998188;28;20372;-75
2021/08/25 09:40:17;;;;;;;8.93;4.70;;;;;;;;;;4999277;28;20045;-75
2021/08/25 09:42:47;;;;;;;8.70;3.85;;;;;;;;;;4998862;28;20393;-75
2021/08/25 09:45:14;;;;;;;4.85;4.03;;;;;;;;;;4998742;28;20034;-75
2021/08/25 09:47:53;;;;;;;7.85;4.00;;;;;;;;;;4999081;28;20026;-76
2021/08/25 09:50:21;;;;;;;4.80;3.80;;;;;;;;;;4998750;28;20044;-76
2021/08/25 09:52:48;;;;;;;9.93;4.28;;;;;;;;;;4998938;28;20026;-83
2021/08/25 09:55:15;;;;;;;6.40;3.95;;;;;;;;;;4998402;28;20026;-75
2021/08/25 09:57:42;;;;;;;6.13;4.05;;;;;;;;;;4998376;28;20033;-75
2021/08/25 10:00:09;;;;;;;5.45;4.18;;;;;;;;;;4998914;28;20044;-76
2021/08/25 10:02:35;;;;;;;6.00;3.85;;;;;;;;;;4997466;28;20429;-76
2021/08/25 10:05:02;;;;;;;5.70;4.25;;;;;;;;;;4998712;28;20031;-76
2021/08/25 10:07:28;;;;;;;4.03;3.35;;;;;;;;;;4998490;28;20043;-76
2021/08/25 10:09:55;;;;;;;4.68;3.70;;;;;;;;;;4998563;28;20109;-76
2021/08/25 10:12:21;;;;;;;4.00;3.53;;;;;;;;;;4998367;28;20026;-75
2021/08/25 10:14:47;;;;;;;6.18;4.18;;;;;;;;;;4997424;28;20023;-75
2021/08/25 10:17:37;;;;;;;7.13;3.63;;;;;;;;;;4998541;28;20445;-76
2021/08/25 10:20:23;;;;;;;5.78;3.78;;;;;;;;;;4995636;28;20053;-75
2021/08/25 10:22:49;;;;;;;6.18;3.78;;;;;;;;;;4998026;28;20405;-75
2021/08/25 10:25:15;;;;;;;4.90;3.83;;;;;;;;;;4998388;28;20149;-75
2021/08/25 10:27:59;;;;;;;4.60;3.72;;;;;;;;;;4998152;28;20432;-75
2021/08/25 10:30:26;;;;;;;5.57;4.40;;;;;;;;;;4998260;28;20026;-75
2021/08/25 10:32:52;;;;;;;4.88;3.60;;;;;;;;;;4997616;28;20030;-75
2021/08/25 10:35:19;;;;;;;8.13;4.13;;;;;;;;;;4998077;28;20038;-75
2021/08/25 10:37:47;;;;;;;7.72;4.40;;;;;;;;;;4998066;28;20022;-75
2021/08/25 10:40:14;;;;;;;7.53;3.65;;;;;;;;;;4998151;28;20133;-75
2021/08/25 10:42:47;;;;;;;7.05;3.95;;;;;;;;;;4998056;28;20397;-75
2021/08/25 10:45:15;;;;;;;8.80;4.03;;;;;;;;;;4997899;28;20037;-75
2021/08/25 10:48:02;;;;;;;6.95;3.85;;;;;;;;;;4997883;28;20022;-75
2021/08/25 10:50:47;;;;;;;9.75;3.85;;;;;;;;;;4998108;28;20022;-75
2021/08/25 10:53:28;;;;;;;7.35;3.83;;;;;;;;;;4997996;28;20105;-75
2021/08/25 10:56:10;;;;;;;7.05;3.70;;;;;;;;;;4997823;28;20033;-75
2021/08/25 10:58:45;;;;;;;6.05;3.78;;;;;;;;;;4997829;28;20026;-74
2021/08/25 11:01:24;;;;;;;6.30;3.72;;;;;;;;;;4997686;28;20333;-74
2021/08/25 11:03:51;;;;;;;7.25;3.78;;;;;;;;;;4997610;28;20341;-75
2021/08/25 11:06:37;;;;;;;5.32;3.70;;;;;;;;;;4997634;28;20460;-74
2021/08/25 11:09:10;;;;;;;5.88;3.70;;;;;;;;;;4997665;28;20026;-75
2021/08/25 11:11:36;;;;;;;8.73;3.92;;;;;;;;;;4996537;28;20054;-74
2021/08/25 11:14:02;;;;;;;5.68;3.95;;;;;;;;;;4997135;28;20033;-75
2021/08/25 11:16:28;;;;;;;11.50;4.15;;;;;;;;;;4997579;28;20420;-75
2021/08/25 11:18:55;;;;;;;7.45;4.63;;;;;;;;;;4997522;28;20417;-75
2021/08/25 11:21:21;;;;;;;5.80;3.95;;;;;;;;;;4997589;28;20026;-75
2021/08/25 11:23:57;;;;;;;7.53;3.78;;;;;;;;;;4997423;28;20101;-75
2021/08/25 11:26:24;;;;;;;6.40;4.30;;;;;;;;;;4997719;28;20053;-75
2021/08/25 11:28:50;;;;;;;12.77;5.15;;;;;;;;;;4996431;28;20062;-75
2021/08/25 11:31:28;;;;;;;6.47;4.22;;;;;;;;;;4997666;28;20019;-75
2021/08/25 11:33:54;;;;;;;8.32;4.63;;;;;;;;;;4997503;28;20053;-75
2021/08/25 11:36:20;;;;;;;10.02;4.93;;;;;;;;;;4997521;28;20030;-75
2021/08/25 11:38:46;;;;;;;7.40;3.78;;;;;;;;;;4997501;28;20029;-75
2021/08/25 11:41:12;;;;;;;5.72;3.83;;;;;;;;;;4996297;28;20026;-75
2021/08/25 11:43:48;;;;;;;6.32;3.97;;;;;;;;;;5000222;28;20298;-75
2021/08/25 11:46:24;;;;;;;7.82;4.13;;;;;;;;;;5001153;28;20359;-75
2021/08/25 11:48:51;;;;;;;6.10;3.95;;;;;;;;;;5001090;28;20109;-75
2021/08/25 11:51:17;;;;;;;5.85;3.90;;;;;;;;;;5001046;28;20033;-75
2021/08/25 11:53:43;;;;;;;6.38;3.97;;;;;;;;;;5001327;28;20032;-75
2021/08/25 11:56:10;;;;;;;6.65;4.00;;;;;;;;;;5001221;28;20031;-75
2021/08/25 11:58:41;;;;;;;7.75;3.80;;;;;;;;;;5001081;28;20030;-75
2021/08/25 12:01:23;;;;;;;7.38;4.32;;;;;;;;;;5000912;28;20109;-75
2021/08/25 12:03:49;;;;;;;7.75;3.80;;;;;;;;;;5000860;28;20045;-75
2021/08/25 12:06:16;;;;;;;8.60;4.40;;;;;;;;;;5000886;28;20034;-75
2021/08/25 12:08:43;;;;;;;7.03;3.70;;;;;;;;;;5000996;28;20446;-75
2021/08/25 12:11:10;;;;;;;5.07;3.67;;;;;;;;;;5000859;28;20055;-75
2021/08/25 12:13:40;;;;;;;7.05;4.50;;;;;;;;;;5000760;28;20042;-75
2021/08/25 12:16:22;;;;;;;7.13;4.00;;;;;;;;;;5000681;28;20034;-75
2021/08/25 12:18:50;;;;;;;5.97;3.97;;;;;;;;;;5000653;28;20022;-75
2021/08/25 12:21:17;;;;;;;5.32;4.13;;;;;;;;;;5000569;28;20333;-75
2021/08/25 12:23:56;;;;;;;5.97;4.05;;;;;;;;;;5000836;28;20030;-75
2021/08/25 12:26:22;;;;;;;7.38;4.60;;;;;;;;;;5000560;28;20424;-75
2021/08/25 12:28:48;;;;;;;5.13;4.18;;;;;;;;;;5000143;28;20046;-75
2021/08/25 12:31:15;;;;;;;7.03;4.80;;;;;;;;;;5000268;28;20030;-75
2021/08/25 12:33:41;;;;;;;6.32;4.38;;;;;;;;;;5000353;28;20026;-75
2021/08/25 12:36:27;;;;;;;6.13;4.18;;;;;;;;;;5000437;28;20084;-75
2021/08/25 12:38:54;;;;;;;6.47;4.35;;;;;;;;;;5000284;28;20049;-75
2021/08/25 12:41:21;;;;;;;5.85;4.35;;;;;;;;;;5000188;28;20421;-75
2021/08/25 12:43:48;;;;;;;6.95;4.80;;;;;;;;;;5000188;28;20026;-75
2021/08/25 12:46:14;;;;;;;6.00;4.20;;;;;;;;;;5000145;28;20110;-75
2021/08/25 12:48:40;;;;;;;6.18;4.32;;;;;;;;;;4999996;28;20018;-75
2021/08/25 12:51:06;;;;;;;6.25;3.92;;;;;;;;;;5000076;28;20145;-74
2021/08/25 12:53:32;;;;;;;6.30;4.63;;;;;;;;;;5000084;28;20317;-75
2021/08/25 12:55:58;;;;;;;15.23;5.22;;;;;;;;;;4999456;28;20393;-75
2021/08/25 12:58:24;;;;;;;10.00;5.20;;;;;;;;;;4999862;28;20028;-75
2021/08/25 13:00:50;;;;;;;7.40;4.38;;;;;;;;;;4999829;28;20026;-75
2021/08/25 13:03:16;;;;;;;5.30;4.35;;;;;;;;;;4999673;28;20125;-75
2021/08/25 13:05:42;;;;;;;6.43;4.55;;;;;;;;;;4999790;28;20042;-76
2021/08/25 13:08:08;;;;;;;7.82;4.82;;;;;;;;;;4999714;28;20101;-75
2021/08/25 13:10:34;;;;;;;10.77;5.43;;;;;;;;;;4999677;28;20029;-75
2021/08/25 13:13:01;;;;;;;7.60;4.85;;;;;;;;;;4999566;28;20022;-75
2021/08/25 13:15:27;;;;;;;9.52;4.93;;;;;;;;;;4999534;28;20139;-75
2021/08/25 13:17:53;;;;;;;7.00;3.92;;;;;;;;;;4999781;28;20033;-75
2021/08/25 13:20:19;;;;;;;5.00;4.22;;;;;;;;;;4999573;28;20018;-75
2021/08/25 13:22:45;;;;;;;5.13;3.97;;;;;;;;;;4999497;28;20037;-75
2021/08/25 13:25:11;;;;;;;7.32;3.90;;;;;;;;;;4999443;28;20431;-75
2021/08/25 13:27:37;;;;;;;6.45;4.25;;;;;;;;;;4998399;28;20038;-75
2021/08/25 13:30:03;;;;;;;4.95;3.58;;;;;;;;;;4999452;28;20026;-76
2021/08/25 13:32:29;;;;;;;6.85;3.80;;;;;;;;;;4999314;28;20301;-75
2021/08/25 13:34:55;;;;;;;4.90;3.40;;;;;;;;;;4999193;28;20413;-75
2021/08/25 13:37:21;;;;;;;4.38;3.33;;;;;;;;;;4999324;28;20042;-75
2021/08/25 13:39:48;;;;;;;8.18;3.40;;;;;;;;;;4999195;28;20026;-75
2021/08/25 13:42:14;;;;;;;3.88;3.20;;;;;;;;;;4999057;28;20022;-75
2021/08/25 13:44:40;;;;;;;5.55;3.10;;;;;;;;;;4999232;28;20026;-75
2021/08/25 13:47:06;;;;;;;9.98;3.50;;;;;;;;;;4998985;28;20368;-75
2021/08/25 13:49:32;;;;;;;9.23;3.70;;;;;;;;;;4998845;28;20022;-76
2021/08/25 13:51:58;;;;;;;5.13;3.22;;;;;;;;;;4999017;28;20102;-75
2021/08/25 13:54:24;;;;;;;7.00;2.60;;;;;;;;;;4998789;28;20072;-75
2021/08/25 13:56:50;;;;;;;10.40;2.90;;;;;;;;;;4998816;28;20031;-75
2021/08/25 13:59:16;;;;;;;4.85;2.22;;;;;;;;;;4998759;28;20038;-75
2021/08/25 14:01:42;;;;;;;4.50;2.47;;;;;;;;;;4998669;28;20135;-75
2021/08/25 14:04:08;;;;;;;14.15;3.60;;;;;;;;;;4998798;28;20026;-74
2021/08/25 14:06:34;;;;;;;4.00;2.45;;;;;;;;;;4997704;28;20316;-74
2021/08/25 14:09:01;;;;;;;3.75;2.75;;;;;;;;;;4998608;28;20093;-74
2021/08/25 14:11:27;;;;;;;4.60;2.65;;;;;;;;;;4998461;28;20383;-74
2021/08/25 14:13:53;;;;;;;4.75;2.20;;;;;;;;;;4998344;28;20026;-74
2021/08/25 14:16:19;;;;;;;7.65;2.53;;;;;;;;;;4998612;28;20029;-74
2021/08/25 14:18:45;;;;;;;14.02;3.28;;;;;;;;;;4998426;28;20068;-75
2021/08/25 14:21:11;;;;;;;14.38;3.33;;;;;;;;;;4998275;28;20488;-74
2021/08/25 14:23:37;;;;;;;21.17;3.45;;;;;;;;;;4998412;28;20361;-75
2021/08/25 14:26:03;;;;;;;3.97;2.40;;;;;;;;;;4998278;28;20425;-75
2021/08/25 14:28:29;;;;;;;23.77;4.32;;;;;;;;;;4998440;28;20030;-75
2021/08/25 14:30:56;;;;;;;7.45;2.15;;;;;;;;;;4998328;28;20026;-75
2021/08/25 14:33:23;;;;;;;5.85;2.50;;;;;;;;;;4998379;28;20117;-75
2021/08/25 14:35:49;;;;;;;4.15;2.70;;;;;;;;;;4998164;28;20053;-75
2021/08/25 14:38:16;;;;;;;4.63;2.70;;;;;;;;;;4998048;28;20034;-74
2021/08/25 14:40:42;;;;;;;10.13;2.80;;;;;;;;;;4998080;28;20027;-74
2021/08/25 14:43:08;;;;;;;24.80;4.95;;;;;;;;;;4997998;28;20034;-74
2021/08/25 14:45:34;;;;;;;13.55;3.92;;;;;;;;;;4997775;28;20421;-75
2021/08/25 14:48:00;;;;;;;2.78;2.13;;;;;;;;;;4997913;28;20033;-75
2021/08/25 14:50:27;;;;;;;5.28;2.75;;;;;;;;;;4997885;28;20528;-75
2021/08/25 14:52:53;;;;;;;4.97;2.58;;;;;;;;;;4997835;28;20088;-75
2021/08/25 14:55:19;;;;;;;4.35;2.88;;;;;;;;;;4997923;28;20312;-75
2021/08/25 14:57:45;;;;;;;4.60;2.90;;;;;;;;;;4997740;28;20412;-74
2021/08/25 15:00:12;;;;;;;6.38;2.67;;;;;;;;;;4997824;28;20031;-74
2021/08/25 15:02:38;;;;;;;5.97;2.80;;;;;;;;;;4997665;28;20050;-75
2021/08/25 15:05:04;;;;;;;4.95;2.58;;;;;;;;;;4997796;28;20298;-75
2021/08/25 15:07:30;;;;;;;6.90;2.55;;;;;;;;;;4997686;28;20150;-75
2021/08/25 15:09:56;;;;;;;3.00;2.38;;;;;;;;;;4997741;28;20110;-74
2021/08/25 15:12:22;;;;;;;4.32;2.53;;;;;;;;;;4997724;28;20098;-74
2021/08/25 15:14:48;;;;;;;7.03;2.53;;;;;;;;;;4997682;28;20023;-75